Time;durP1;ratioP1;P1;durP2;ratioP2;P2;SDS_P1;SDS_P2;PMS_P1;PMS_P2;Temp;Humidity;BMP_temperature;BMP_pressure;BME280_temperature;BME280_humidity;BME280_pressure;Samples;Min_cycle;Max_cycle;Signal;HPM_P1;HPM_P2
2023/11/10 00:02:19;;;;;;;35.17;32.78;;;10.20;99.90;;;;;;4993360;28;20053;-68
2023/11/10 00:04:48;;;;;;;34.03;31.77;;;10.20;99.90;;;;;;4994301;28;20018;-68
2023/11/10 00:07:14;;;;;;;39.97;37.22;;;10.20;99.90;;;;;;4994384;28;20042;-68
2023/11/10 00:09:40;;;;;;;29.95;27.85;;;10.10;99.90;;;;;;4994423;28;20431;-69
2023/11/10 00:12:07;;;;;;;32.20;29.90;;;10.10;99.90;;;;;;4994016;28;20030;-68
2023/11/10 00:14:33;;;;;;;26.90;24.98;;;10.20;99.90;;;;;;4994378;28;20022;-68
2023/11/10 00:16:59;;;;;;;34.35;32.08;;;10.10;99.90;;;;;;4992077;28;20407;-68
2023/11/10 00:19:26;;;;;;;29.58;27.40;;;10.10;99.90;;;;;;4994194;28;20030;-68
2023/11/10 00:21:54;;;;;;;34.08;31.75;;;10.10;99.90;;;;;;4993851;28;20053;-69
2023/11/10 00:24:23;;;;;;;27.50;25.23;;;10.10;99.90;;;;;;4994102;28;20113;-68
2023/11/10 00:26:50;;;;;;;27.15;25.10;;;10.10;99.90;;;;;;4992775;28;20456;-68
2023/11/10 00:29:16;;;;;;;25.30;23.33;;;10.10;99.90;;;;;;4976816;28;20042;-68
2023/11/10 00:31:45;;;;;;;25.95;23.77;;;10.10;99.90;;;;;;4992938;28;20042;-68
2023/11/10 00:34:11;;;;;;;25.52;23.95;;;10.10;99.90;;;;;;4993991;28;20023;-68
2023/11/10 00:36:37;;;;;;;26.10;23.67;;;10.00;99.90;;;;;;4993593;28;20395;-68
2023/11/10 00:39:03;;;;;;;25.38;23.30;;;10.10;99.90;;;;;;4993660;28;20041;-68
2023/11/10 00:41:29;;;;;;;24.85;22.92;;;10.00;99.90;;;;;;4993651;28;20022;-68
2023/11/10 00:43:55;;;;;;;23.90;22.13;;;10.00;99.90;;;;;;4993630;28;20427;-68
2023/11/10 00:46:21;;;;;;;25.33;22.95;;;10.00;99.90;;;;;;4992750;28;20031;-68
2023/11/10 00:48:47;;;;;;;23.55;21.55;;;9.90;99.90;;;;;;4994037;28;20050;-69
2023/11/10 00:51:13;;;;;;;21.40;19.77;;;9.90;99.90;;;;;;4993231;28;20042;-68
2023/11/10 00:53:41;;;;;;;23.00;21.33;;;9.80;99.90;;;;;;4992552;28;20047;-68
2023/11/10 00:56:08;;;;;;;33.33;31.13;;;9.90;99.90;;;;;;5001286;28;20060;-68
2023/11/10 00:58:34;;;;;;;32.85;30.55;;;9.80;99.90;;;;;;5013093;28;20037;-68
2023/11/10 01:01:00;;;;;;;30.90;28.70;;;9.80;99.90;;;;;;5011876;28;20042;-68
2023/11/10 01:03:26;;;;;;;28.40;26.08;;;9.80;99.90;;;;;;5012769;28;20046;-68
2023/11/10 01:05:52;;;;;;;33.65;31.20;;;9.80;99.90;;;;;;5012469;28;20037;-68
2023/11/10 01:08:19;;;;;;;39.75;37.15;;;9.80;99.90;;;;;;5012854;28;20068;-67
2023/11/10 01:10:45;;;;;;;32.58;30.33;;;9.70;99.90;;;;;;5012603;28;20034;-67
2023/11/10 01:13:14;;;;;;;40.50;37.88;;;9.70;99.90;;;;;;5011660;28;20029;-67
2023/11/10 01:15:40;;;;;;;34.92;32.60;;;9.70;99.90;;;;;;5011596;28;20030;-67
2023/11/10 01:18:07;;;;;;;29.38;27.55;;;9.70;99.90;;;;;;5012707;28;20033;-67
2023/11/10 01:20:33;;;;;;;32.90;30.75;;;9.70;99.90;;;;;;5012349;28;20049;-67
2023/11/10 01:22:59;;;;;;;29.92;27.48;;;9.70;99.90;;;;;;5012675;28;20056;-67
2023/11/10 01:25:25;;;;;;;27.45;25.20;;;9.60;99.90;;;;;;5011980;28;20046;-67
2023/11/10 01:27:53;;;;;;;26.95;24.95;;;9.60;99.90;;;;;;5012572;28;20037;-67
2023/11/10 01:30:19;;;;;;;25.65;23.45;;;9.50;99.90;;;;;;5011403;28;20045;-67
2023/11/10 01:32:45;;;;;;;25.98;23.85;;;9.50;99.90;;;;;;5012586;28;20041;-67
2023/11/10 01:35:12;;;;;;;26.88;24.67;;;9.50;99.90;;;;;;5012234;28;20046;-67
2023/11/10 01:37:39;;;;;;;26.23;24.15;;;9.50;99.90;;;;;;5012441;28;20394;-67
2023/11/10 01:40:06;;;;;;;25.73;22.92;;;9.50;99.90;;;;;;5012373;28;20038;-67
2023/11/10 01:42:32;;;;;;;24.02;22.13;;;9.50;99.90;;;;;;5012161;28;20054;-67
2023/11/10 01:44:58;;;;;;;25.25;23.33;;;9.40;99.90;;;;;;5012120;28;20474;-67
2023/11/10 01:47:25;;;;;;;26.77;24.23;;;9.50;99.90;;;;;;5011359;28;20034;-67
2023/11/10 01:49:52;;;;;;;29.73;27.58;;;9.50;99.90;;;;;;5011260;28;20034;-67
2023/11/10 01:52:18;;;;;;;29.02;26.55;;;9.50;99.90;;;;;;5010087;28;20046;-67
2023/11/10 01:54:44;;;;;;;27.35;24.88;;;9.50;99.90;;;;;;5011163;28;20029;-67
2023/11/10 01:57:10;;;;;;;32.03;29.73;;;9.50;99.90;;;;;;4994181;28;20022;-67
2023/11/10 01:59:36;;;;;;;29.48;27.42;;;9.50;99.90;;;;;;4992430;28;20034;-67
2023/11/10 02:02:03;;;;;;;31.80;29.90;;;9.50;99.90;;;;;;4990517;28;20035;-67
2023/11/10 02:04:32;;;;;;;31.40;29.02;;;9.50;99.90;;;;;;4993001;28;20403;-67
2023/11/10 02:06:58;;;;;;;29.27;26.88;;;9.50;99.90;;;;;;4992595;28;20057;-67
2023/11/10 02:09:25;;;;;;;26.00;24.30;;;9.50;99.90;;;;;;4992429;28;20502;-67
2023/11/10 02:11:51;;;;;;;25.70;23.92;;;9.50;99.90;;;;;;4992541;28;20050;-67
2023/11/10 02:14:17;;;;;;;24.92;22.50;;;9.50;99.90;;;;;;4992286;28;20038;-67
2023/11/10 02:16:44;;;;;;;24.63;22.88;;;9.50;99.90;;;;;;4995165;28;20031;-67
2023/11/10 02:19:15;;;;;;;25.45;23.45;;;9.50;99.90;;;;;;4996875;28;20058;-67
2023/11/10 02:21:44;;;;;;;23.02;21.42;;;9.40;99.90;;;;;;4996296;28;20035;-67
2023/11/10 02:24:12;;;;;;;24.05;22.33;;;9.50;99.90;;;;;;4996195;28;20046;-67
2023/11/10 02:26:39;;;;;;;25.23;23.30;;;9.40;99.90;;;;;;4994843;28;20023;-67
2023/11/10 02:29:05;;;;;;;25.33;23.42;;;9.40;99.90;;;;;;4996164;28;20038;-67
2023/11/10 02:31:31;;;;;;;29.27;27.17;;;9.40;99.90;;;;;;4995452;28;20495;-67
2023/11/10 02:33:57;;;;;;;28.98;26.77;;;9.40;99.90;;;;;;4996286;28;20034;-67
2023/11/10 02:36:24;;;;;;;28.98;26.80;;;9.40;99.90;;;;;;4995992;28;20049;-67
2023/11/10 02:38:50;;;;;;;30.10;27.88;;;9.40;99.90;;;;;;4996041;28;20034;-67
2023/11/10 02:41:16;;;;;;;31.75;29.58;;;9.40;99.90;;;;;;4994648;28;20055;-67
2023/11/10 02:43:42;;;;;;;29.65;27.33;;;9.30;99.90;;;;;;4994523;28;20506;-67
2023/11/10 02:46:08;;;;;;;28.60;26.60;;;9.30;99.90;;;;;;4995124;28;20030;-67
2023/11/10 02:48:34;;;;;;;28.20;25.98;;;9.40;99.90;;;;;;4996281;28;20069;-67
2023/11/10 02:51:00;;;;;;;23.38;21.48;;;9.40;99.90;;;;;;4995544;28;20026;-67
2023/11/10 02:53:26;;;;;;;27.30;25.55;;;9.30;99.90;;;;;;4994713;28;20038;-67
2023/11/10 02:55:52;;;;;;;27.33;25.10;;;9.30;99.90;;;;;;5001098;28;20026;-67
2023/11/10 02:58:19;;;;;;;26.33;24.13;;;9.40;99.90;;;;;;5014962;28;20057;-67
2023/11/10 03:00:45;;;;;;;24.98;22.77;;;9.40;99.90;;;;;;5014510;28;20040;-67
2023/11/10 03:03:14;;;;;;;23.85;21.98;;;9.40;99.90;;;;;;5015004;28;20052;-67
2023/11/10 03:05:40;;;;;;;27.05;24.75;;;9.40;99.90;;;;;;5014610;28;20049;-67
2023/11/10 03:08:07;;;;;;;27.45;25.25;;;9.40;99.90;;;;;;5015041;28;20037;-67
2023/11/10 03:10:33;;;;;;;27.85;25.70;;;9.40;99.90;;;;;;5014465;28;20034;-67
2023/11/10 03:12:59;;;;;;;26.25;24.23;;;9.40;99.90;;;;;;5015125;28;20058;-67
2023/11/10 03:15:26;;;;;;;26.90;25.10;;;9.40;99.90;;;;;;5014020;28;20037;-67
2023/11/10 03:17:53;;;;;;;25.80;23.90;;;9.40;99.90;;;;;;5014773;28;20045;-67
2023/11/10 03:20:19;;;;;;;28.85;26.98;;;9.40;99.90;;;;;;5014375;28;20044;-67
2023/11/10 03:22:46;;;;;;;30.92;28.90;;;9.40;99.90;;;;;;5014935;28;20077;-67
2023/11/10 03:25:12;;;;;;;29.30;27.10;;;9.30;99.90;;;;;;5013766;28;20046;-67
2023/11/10 03:27:38;;;;;;;28.85;26.75;;;9.30;99.90;;;;;;5013620;28;20039;-67
2023/11/10 03:30:05;;;;;;;29.48;27.20;;;9.30;99.90;;;;;;5014218;28;20040;-67
2023/11/10 03:32:32;;;;;;;28.20;26.08;;;9.30;99.90;;;;;;5014303;28;20038;-67
2023/11/10 03:34:58;;;;;;;29.27;27.17;;;9.30;99.90;;;;;;5014762;28;20467;-67
2023/11/10 03:37:24;;;;;;;28.63;26.42;;;9.30;99.90;;;;;;5012819;28;20042;-67
2023/11/10 03:39:50;;;;;;;28.48;26.42;;;9.40;99.90;;;;;;5014248;28;20041;-67
2023/11/10 03:42:16;;;;;;;28.73;26.27;;;9.40;99.90;;;;;;5014111;28;20041;-67
2023/11/10 03:44:42;;;;;;;30.33;28.25;;;9.40;99.90;;;;;;5014425;28;20516;-67
2023/11/10 03:47:09;;;;;;;28.02;25.83;;;9.40;99.90;;;;;;5012262;28;20042;-67
2023/11/10 03:49:35;;;;;;;25.58;23.52;;;9.40;99.90;;;;;;5014381;28;20041;-67
2023/11/10 03:52:01;;;;;;;27.05;24.98;;;9.30;99.90;;;;;;5012141;28;20053;-67
2023/11/10 03:54:29;;;;;;;27.48;25.08;;;9.30;99.90;;;;;;5013960;28;20037;-67
2023/11/10 03:56:55;;;;;;;25.55;23.42;;;9.30;99.90;;;;;;4998080;28;20065;-67
2023/11/10 03:59:21;;;;;;;25.75;23.65;;;9.30;99.90;;;;;;4995073;28;20054;-67
2023/11/10 04:01:47;;;;;;;23.77;21.55;;;9.20;99.90;;;;;;4993762;28;20618;-67
2023/11/10 04:04:13;;;;;;;22.63;20.75;;;9.30;99.90;;;;;;4993332;28;20043;-67
2023/11/10 04:06:39;;;;;;;24.58;21.27;;;9.30;99.90;;;;;;4993887;28;20486;-67
2023/11/10 04:09:05;;;;;;;23.23;20.77;;;9.30;99.90;;;;;;4994082;28;20046;-67
2023/11/10 04:11:31;;;;;;;23.40;21.10;;;9.30;99.90;;;;;;4994102;28;20490;-67
2023/11/10 04:13:57;;;;;;;24.02;21.75;;;9.30;99.90;;;;;;4994304;28;20050;-67
2023/11/10 04:16:24;;;;;;;23.17;21.05;;;9.30;99.90;;;;;;4992365;28;20395;-67
2023/11/10 04:18:51;;;;;;;23.42;21.30;;;9.30;99.90;;;;;;4994447;28;20046;-67
2023/11/10 04:21:18;;;;;;;22.73;21.00;;;9.30;99.90;;;;;;4992911;28;20042;-67
2023/11/10 04:23:45;;;;;;;23.05;20.88;;;9.30;99.90;;;;;;4992454;28;20042;-67
2023/11/10 04:26:11;;;;;;;23.95;20.30;;;9.30;99.90;;;;;;4994129;28;20038;-67
2023/11/10 04:28:38;;;;;;;24.40;22.02;;;9.30;99.90;;;;;;4993969;28;20079;-67
2023/11/10 04:31:04;;;;;;;28.08;25.25;;;9.20;99.90;;;;;;4993522;28;20141;-67
2023/11/10 04:33:30;;;;;;;24.98;22.85;;;9.20;99.90;;;;;;4992929;28;20038;-67
2023/11/10 04:35:56;;;;;;;24.80;22.23;;;9.30;99.90;;;;;;4993418;28;20030;-67
2023/11/10 04:38:23;;;;;;;27.38;21.75;;;9.20;99.90;;;;;;4993573;28;20050;-67
2023/11/10 04:40:49;;;;;;;23.75;21.63;;;9.20;99.90;;;;;;4992223;28;20030;-67
2023/11/10 04:43:15;;;;;;;25.73;23.55;;;9.20;99.90;;;;;;4993851;28;20042;-67
2023/11/10 04:45:42;;;;;;;25.45;23.20;;;9.20;99.90;;;;;;4992967;28;20033;-69
2023/11/10 04:48:08;;;;;;;24.95;22.58;;;9.20;99.90;;;;;;4993877;28;20053;-69
2023/11/10 04:50:34;;;;;;;24.38;20.25;;;9.20;99.90;;;;;;4993874;28;20042;-67
2023/11/10 04:53:00;;;;;;;24.52;22.17;;;9.20;99.90;;;;;;4993412;28;20030;-67
2023/11/10 04:55:26;;;;;;;32.63;29.60;;;9.20;99.90;;;;;;4995407;28;20034;-67
2023/11/10 04:57:52;;;;;;;26.75;24.02;;;9.20;99.90;;;;;;5013008;28;20037;-67
2023/11/10 05:00:23;;;;;;;33.05;22.73;;;9.20;99.90;;;;;;5012271;28;20029;-67
2023/11/10 05:02:50;;;;;;;30.95;27.27;;;9.20;99.90;;;;;;5012936;28;20041;-67
2023/11/10 05:05:17;;;;;;;30.83;27.92;;;9.20;99.90;;;;;;5012958;28;20041;-67
2023/11/10 05:07:44;;;;;;;25.35;23.08;;;9.20;99.90;;;;;;5012932;28;20049;-67
2023/11/10 05:10:10;;;;;;;26.70;24.33;;;9.20;99.90;;;;;;5012482;28;20033;-67
2023/11/10 05:12:37;;;;;;;28.45;24.95;;;9.20;99.90;;;;;;4973776;28;20027;-67
2023/11/10 05:15:07;;;;;;;31.75;28.73;;;9.10;99.90;;;;;;4973433;28;20037;-66
2023/11/10 05:17:39;;;;;;;30.08;26.73;;;9.20;99.90;;;;;;4993235;28;20053;-67
2023/11/10 05:20:07;;;;;;;26.08;23.65;;;9.20;99.90;;;;;;4993240;28;20387;-67
2023/11/10 05:22:34;;;;;;;38.30;27.88;;;9.10;99.90;;;;;;5012033;28;20057;-67
2023/11/10 05:25:02;;;;;;;31.15;27.77;;;9.10;99.90;;;;;;5012535;28;20053;-67
2023/11/10 05:27:28;;;;;;;28.25;25.52;;;9.10;99.90;;;;;;5010466;28;20046;-67
2023/11/10 05:29:55;;;;;;;27.83;25.33;;;9.10;99.90;;;;;;5012695;28;20466;-67
2023/11/10 05:32:21;;;;;;;28.30;25.17;;;9.20;99.90;;;;;;5011571;28;20046;-69
2023/11/10 05:34:50;;;;;;;29.83;25.52;;;9.20;99.90;;;;;;5012779;28;20049;-67
2023/11/10 05:37:23;;;;;;;29.90;26.77;;;9.20;99.90;;;;;;5011697;28;20475;-67
2023/11/10 05:39:53;;;;;;;27.27;24.58;;;9.20;99.90;;;;;;5012521;28;20474;-67
2023/11/10 05:42:22;;;;;;;27.70;24.95;;;9.20;99.90;;;;;;5012022;28;20041;-67
2023/11/10 05:44:49;;;;;;;29.98;27.33;;;9.20;99.90;;;;;;5012532;28;20033;-67
2023/11/10 05:47:15;;;;;;;27.02;24.42;;;9.20;99.90;;;;;;5011429;28;20038;-67
2023/11/10 05:49:41;;;;;;;27.58;24.77;;;9.30;99.90;;;;;;5011661;28;20064;-67
2023/11/10 05:52:09;;;;;;;28.55;25.73;;;9.30;99.90;;;;;;5011575;28;20081;-67
2023/11/10 05:54:35;;;;;;;26.85;24.35;;;9.30;99.90;;;;;;5012578;28;20494;-67
2023/11/10 05:57:02;;;;;;;30.85;27.02;;;9.30;99.90;;;;;;4995225;28;20042;-67
2023/11/10 05:59:28;;;;;;;41.20;37.65;;;9.30;99.90;;;;;;4991391;28;20031;-67
2023/11/10 06:01:57;;;;;;;27.48;24.85;;;9.30;99.90;;;;;;4992265;28;20053;-67
2023/11/10 06:04:23;;;;;;;28.58;21.55;;;9.30;99.90;;;;;;4992471;28;20053;-68
2023/11/10 06:06:50;;;;;;;30.98;22.48;;;9.30;99.90;;;;;;4992389;28;20471;-67
2023/11/10 06:09:22;;;;;;;26.17;21.88;;;9.30;99.90;;;;;;4992803;28;20046;-67
2023/11/10 06:11:52;;;;;;;24.73;22.23;;;9.30;99.90;;;;;;4992442;28;20069;-67
2023/11/10 06:14:18;;;;;;;31.98;28.92;;;9.40;99.90;;;;;;4992766;28;20046;-67
2023/11/10 06:16:44;;;;;;;44.47;40.85;;;9.30;99.90;;;;;;4991673;28;20050;-67
2023/11/10 06:19:11;;;;;;;37.88;34.63;;;9.40;99.90;;;;;;4992087;28;20038;-67
2023/11/10 06:21:37;;;;;;;37.75;34.53;;;9.40;99.90;;;;;;4992284;28;20049;-67
2023/11/10 06:24:03;;;;;;;37.38;34.28;;;9.40;99.90;;;;;;4992165;28;20062;-67
2023/11/10 06:26:30;;;;;;;35.25;32.15;;;9.40;99.90;;;;;;4992598;28;20371;-67
2023/11/10 06:28:58;;;;;;;34.92;28.08;;;9.40;99.90;;;;;;4992708;28;20050;-67
2023/11/10 06:31:24;;;;;;;37.22;29.20;;;9.50;99.90;;;;;;4992014;28;20391;-68
2023/11/10 06:33:51;;;;;;;28.60;25.55;;;9.50;99.90;;;;;;4992494;28;20042;-67
2023/11/10 06:36:17;;;;;;;30.70;27.58;;;9.50;99.90;;;;;;4991016;28;20384;-67
2023/11/10 06:38:44;;;;;;;29.08;24.45;;;9.50;99.90;;;;;;4991255;28;20034;-67
2023/11/10 06:41:11;;;;;;;34.22;26.02;;;9.60;99.90;;;;;;4992582;28;20042;-72
2023/11/10 06:43:38;;;;;;;31.48;25.30;;;9.60;99.90;;;;;;4992883;28;20304;-72
2023/11/10 06:46:04;;;;;;;36.25;24.45;;;9.60;99.90;;;;;;4992121;28;20027;-72
2023/11/10 06:48:30;;;;;;;29.92;26.90;;;9.60;99.90;;;;;;4992346;28;20479;-72
2023/11/10 06:50:56;;;;;;;33.17;26.70;;;9.60;99.90;;;;;;4992416;28;20029;-72
2023/11/10 06:53:23;;;;;;;42.53;38.80;;;9.60;99.90;;;;;;4992361;28;20026;-72
2023/11/10 06:55:49;;;;;;;34.40;29.45;;;9.60;99.90;;;;;;4992231;28;20023;-72
2023/11/10 06:58:18;;;;;;;52.65;47.45;;;9.60;99.90;;;;;;4992172;28;20406;-72
2023/11/10 07:00:47;;;;;;;33.03;28.73;;;9.70;99.90;;;;;;4992028;28;20387;-72
2023/11/10 07:03:14;;;;;;;33.35;29.95;;;9.60;99.90;;;;;;4995288;28;20042;-72
2023/11/10 07:05:40;;;;;;;35.70;24.50;;;9.60;99.90;;;;;;4995755;28;20049;-71
2023/11/10 07:08:09;;;;;;;38.55;34.85;;;9.70;99.90;;;;;;4995799;28;20029;-72
2023/11/10 07:10:43;;;;;;;36.08;32.30;;;9.70;99.90;;;;;;4995753;28;20383;-72
2023/11/10 07:13:10;;;;;;;34.95;31.48;;;9.70;99.90;;;;;;4995460;28;20471;-72
2023/11/10 07:15:36;;;;;;;31.30;27.55;;;9.70;99.90;;;;;;4994975;28;20026;-72
2023/11/10 07:18:02;;;;;;;28.65;22.75;;;9.80;99.90;;;;;;4993413;28;20042;-72
2023/11/10 07:20:30;;;;;;;28.88;24.90;;;9.80;99.90;;;;;;4995429;28;20026;-72
2023/11/10 07:22:58;;;;;;;33.90;26.23;;;9.80;99.90;;;;;;4995374;28;20045;-72
2023/11/10 07:25:27;;;;;;;26.92;22.13;;;9.80;99.90;;;;;;4994746;28;20054;-72
2023/11/10 07:27:54;;;;;;;23.13;20.48;;;9.80;99.90;;;;;;4993948;28;20405;-72
2023/11/10 07:30:21;;;;;;;31.10;24.83;;;9.80;99.90;;;;;;4994603;28;20038;-71
2023/11/10 07:32:49;;;;;;;30.65;25.70;;;9.90;99.90;;;;;;4995341;28;20061;-72
2023/11/10 07:35:16;;;;;;;25.70;23.23;;;9.90;99.90;;;;;;4994864;28;20041;-72
2023/11/10 07:37:44;;;;;;;25.70;22.98;;;9.90;99.90;;;;;;4995119;28;20053;-72
2023/11/10 07:40:14;;;;;;;30.00;21.73;;;9.90;99.90;;;;;;4994830;28;20039;-72
2023/11/10 07:42:44;;;;;;;25.00;21.98;;;9.90;99.90;;;;;;4994563;28;20054;-68
2023/11/10 07:45:17;;;;;;;31.92;21.30;;;9.90;99.90;;;;;;4994379;28;20053;-69
2023/11/10 07:47:43;;;;;;;33.63;22.33;;;9.90;99.90;;;;;;5011256;28;20038;-69
2023/11/10 07:50:10;;;;;;;30.23;21.10;;;9.90;99.90;;;;;;5014104;28;20037;-69
2023/11/10 07:52:37;;;;;;;28.33;22.27;;;10.00;99.90;;;;;;4973932;28;20051;-69
2023/11/10 07:55:04;;;;;;;30.60;22.88;;;10.00;99.90;;;;;;4976055;28;20066;-69
2023/11/10 07:57:31;;;;;;;33.30;23.27;;;10.10;99.90;;;;;;5013397;28;20037;-69
2023/11/10 08:00:01;;;;;;;28.50;22.60;;;10.00;99.90;;;;;;5014316;28;20045;-69
2023/11/10 08:02:27;;;;;;;26.90;22.92;;;10.10;99.90;;;;;;5012606;28;20049;-69
2023/11/10 08:04:53;;;;;;;31.42;25.38;;;10.10;99.90;;;;;;5014025;28;20037;-69
2023/11/10 08:07:20;;;;;;;29.20;26.15;;;10.20;99.90;;;;;;5013497;28;20037;-69
2023/11/10 08:09:49;;;;;;;24.23;21.95;;;10.20;99.90;;;;;;5012360;28;20042;-69
2023/11/10 08:12:15;;;;;;;23.75;21.63;;;10.20;99.90;;;;;;5013477;28;20037;-69
2023/11/10 08:14:41;;;;;;;27.77;25.23;;;10.20;99.90;;;;;;5013484;28;20044;-69
2023/11/10 08:17:07;;;;;;;26.77;24.02;;;10.20;99.90;;;;;;5012524;28;20482;-69
2023/11/10 08:19:33;;;;;;;30.08;27.55;;;10.20;99.90;;;;;;5013756;28;20030;-69
2023/11/10 08:22:00;;;;;;;28.10;26.02;;;10.20;99.90;;;;;;5013356;28;20037;-69
2023/11/10 08:24:27;;;;;;;27.88;25.63;;;10.20;99.90;;;;;;5011724;28;20516;-69
2023/11/10 08:26:55;;;;;;;27.80;25.35;;;10.30;99.90;;;;;;5012138;28;20045;-69
2023/11/10 08:29:22;;;;;;;26.67;23.92;;;10.30;99.90;;;;;;5013780;28;20050;-69
2023/11/10 08:31:50;;;;;;;31.60;29.25;;;10.30;99.90;;;;;;5011125;28;20040;-69
2023/11/10 08:34:16;;;;;;;33.35;30.98;;;10.30;99.90;;;;;;5013901;28;20506;-69
2023/11/10 08:36:43;;;;;;;32.13;29.77;;;10.30;99.90;;;;;;5013057;28;20036;-69
2023/11/10 08:39:09;;;;;;;42.33;39.47;;;10.40;99.90;;;;;;5013651;28;20033;-69
2023/11/10 08:41:36;;;;;;;45.15;41.70;;;10.40;99.90;;;;;;5013056;28;20493;-66
2023/11/10 08:44:03;;;;;;;29.20;26.77;;;10.40;99.90;;;;;;5012973;28;20068;-66
2023/11/10 08:46:32;;;;;;;35.65;33.22;;;10.50;99.90;;;;;;5012702;28;20041;-66
2023/11/10 08:48:59;;;;;;;38.38;35.75;;;10.50;99.90;;;;;;5013269;28;20033;-66
2023/11/10 08:51:26;;;;;;;26.85;24.83;;;10.50;99.90;;;;;;5011133;28;20053;-67
2023/11/10 08:53:52;;;;;;;36.35;33.85;;;10.50;99.90;;;;;;5011875;28;20053;-69
2023/11/10 08:56:18;;;;;;;52.45;49.55;;;10.50;99.90;;;;;;5002135;28;20037;-69
2023/11/10 08:58:44;;;;;;;44.38;41.63;;;10.50;99.90;;;;;;4992012;28;20050;-69
2023/11/10 09:01:10;;;;;;;62.13;58.72;;;10.50;99.90;;;;;;4992860;28;20031;-69
2023/11/10 09:03:36;;;;;;;34.45;32.13;;;10.40;99.90;;;;;;4993835;28;20042;-69
2023/11/10 09:06:02;;;;;;;44.95;42.25;;;10.50;99.90;;;;;;4993001;28;20045;-69
2023/11/10 09:08:29;;;;;;;29.10;26.95;;;10.50;99.90;;;;;;4993169;28;20041;-69
2023/11/10 09:10:56;;;;;;;32.95;30.70;;;10.50;99.90;;;;;;4993036;28;20026;-69
2023/11/10 09:13:22;;;;;;;44.45;41.88;;;10.60;99.90;;;;;;4993160;28;20056;-69
2023/11/10 09:15:48;;;;;;;40.20;37.78;;;10.70;99.90;;;;;;4992438;28;20031;-69
2023/11/10 09:18:14;;;;;;;26.95;24.88;;;10.90;99.90;;;;;;4993091;28;20050;-69
2023/11/10 09:20:40;;;;;;;37.38;35.22;;;10.90;99.90;;;;;;4992796;28;20037;-69
2023/11/10 09:23:06;;;;;;;59.88;56.33;;;10.90;99.90;;;;;;4993157;28;20034;-69
2023/11/10 09:25:32;;;;;;;52.22;49.13;;;11.00;99.90;;;;;;4991531;28;20050;-69
2023/11/10 09:27:58;;;;;;;51.80;48.78;;;11.00;99.90;;;;;;4992757;28;20030;-69
2023/11/10 09:30:24;;;;;;;53.35;50.30;;;11.10;99.90;;;;;;4992375;28;20026;-69
2023/11/10 09:32:51;;;;;;;39.55;36.90;;;11.00;99.90;;;;;;4992976;28;20042;-69
2023/11/10 09:35:17;;;;;;;32.60;30.30;;;11.10;99.90;;;;;;4992842;28;20053;-69
2023/11/10 09:37:46;;;;;;;61.67;57.70;;;11.00;99.90;;;;;;4992907;28;20023;-69
2023/11/10 09:40:14;;;;;;;46.65;43.88;;;11.10;99.90;;;;;;4993028;28;20042;-69
2023/11/10 09:42:41;;;;;;;53.53;50.08;;;11.00;99.90;;;;;;4992592;28;20034;-69
2023/11/10 09:45:08;;;;;;;61.05;57.45;;;11.00;99.90;;;;;;4992528;28;20061;-69
2023/11/10 09:47:34;;;;;;;54.38;50.60;;;11.10;99.90;;;;;;4991455;28;20038;-69
2023/11/10 09:50:01;;;;;;;61.72;58.00;;;11.10;99.90;;;;;;4992732;28;20034;-69
2023/11/10 09:52:31;;;;;;;40.70;38.20;;;11.20;99.90;;;;;;4992379;28;20034;-69
2023/11/10 09:54:57;;;;;;;36.05;33.63;;;11.30;99.90;;;;;;4991365;28;20062;-69
2023/11/10 09:57:23;;;;;;;35.83;33.53;;;11.30;99.90;;;;;;5010150;28;20390;-68
2023/11/10 09:59:49;;;;;;;38.00;35.40;;;11.50;99.90;;;;;;5011099;28;20034;-68
2023/11/10 10:02:16;;;;;;;36.08;33.67;;;11.50;99.90;;;;;;5010157;28;20399;-68
2023/11/10 10:04:43;;;;;;;39.15;36.38;;;11.60;99.90;;;;;;5012017;28;20058;-68
2023/11/10 10:07:13;;;;;;;33.17;30.38;;;11.60;99.90;;;;;;5011306;28;20034;-68
2023/11/10 10:09:40;;;;;;;29.90;27.55;;;11.60;99.90;;;;;;5012281;28;20049;-68
2023/11/10 10:12:08;;;;;;;33.22;31.23;;;11.60;99.90;;;;;;5011534;28;20026;-68
2023/11/10 10:14:38;;;;;;;42.40;39.67;;;11.70;99.90;;;;;;5012397;28;20053;-68
2023/11/10 10:17:04;;;;;;;37.72;35.10;;;11.80;99.90;;;;;;5011335;28;20026;-68
2023/11/10 10:19:30;;;;;;;38.30;35.70;;;11.90;99.90;;;;;;5012143;28;20049;-68
2023/11/10 10:21:59;;;;;;;39.42;36.85;;;11.80;99.90;;;;;;5011822;28;20045;-68
2023/11/10 10:24:25;;;;;;;43.75;40.88;;;11.80;99.90;;;;;;5010251;28;20069;-68
2023/11/10 10:26:51;;;;;;;37.65;34.83;;;11.80;99.90;;;;;;5011368;28;20029;-68
2023/11/10 10:29:20;;;;;;;46.80;44.10;;;11.70;99.90;;;;;;5012056;28;20490;-68
2023/11/10 10:31:46;;;;;;;38.63;36.13;;;11.80;99.90;;;;;;5011171;28;20048;-68
2023/11/10 10:34:15;;;;;;;37.22;34.90;;;11.90;99.90;;;;;;5011786;28;20042;-68
2023/11/10 10:36:42;;;;;;;35.35;32.83;;;12.00;99.90;;;;;;5010972;28;20038;-68
2023/11/10 10:39:12;;;;;;;31.42;29.33;;;12.00;99.90;;;;;;5015748;28;20052;-68
2023/11/10 10:41:38;;;;;;;32.67;30.55;;;12.10;99.90;;;;;;5014912;28;20134;-68
2023/11/10 10:44:05;;;;;;;36.38;33.72;;;12.10;99.90;;;;;;5015667;28;20050;-68
2023/11/10 10:46:34;;;;;;;39.22;36.58;;;12.20;99.90;;;;;;5014628;28;20042;-68
2023/11/10 10:49:06;;;;;;;41.38;38.42;;;12.30;99.90;;;;;;5015394;28;20065;-68
2023/11/10 10:51:36;;;;;;;42.05;39.13;;;12.30;99.90;;;;;;5015005;28;20053;-68
2023/11/10 10:54:06;;;;;;;40.42;37.65;;;12.40;99.90;;;;;;5015849;28;20412;-68
2023/11/10 10:56:40;;;;;;;43.47;40.58;;;12.40;99.90;;;;;;5000939;28;20041;-68
2023/11/10 10:59:07;;;;;;;47.78;44.25;;;12.50;99.90;;;;;;4995682;28;20030;-68
2023/11/10 11:01:34;;;;;;;53.17;49.72;;;12.60;99.90;;;;;;4995090;28;20494;-68
2023/11/10 11:04:24;;;;;;;47.08;44.28;;;12.60;99.90;;;;;;4995596;28;20038;-68
2023/11/10 11:07:11;;;;;;;49.57;46.23;;;12.50;99.90;;;;;;4995601;28;20049;-68
2023/11/10 11:09:48;;;;;;;45.95;42.25;;;12.50;99.90;;;;;;4995683;28;20273;-68
2023/11/10 11:12:28;;;;;;;43.78;41.00;;;12.50;99.90;;;;;;4995239;28;20037;-68
2023/11/10 11:14:59;;;;;;;45.58;42.65;;;12.50;99.90;;;;;;4994253;28;20057;-68
2023/11/10 11:17:35;;;;;;;45.38;42.17;;;12.50;99.90;;;;;;4995014;28;20042;-68
2023/11/10 11:20:01;;;;;;;52.78;49.55;;;12.50;99.90;;;;;;4995225;28;20499;-68
2023/11/10 11:22:30;;;;;;;45.50;42.28;;;12.50;99.90;;;;;;4993802;28;20395;-68
2023/11/10 11:25:08;;;;;;;53.95;50.67;;;12.50;99.90;;;;;;4994797;28;20050;-68
2023/11/10 11:27:35;;;;;;;44.90;41.72;;;12.50;99.90;;;;;;5014932;28;20049;-68
2023/11/10 11:30:12;;;;;;;92.55;86.82;;;12.50;99.90;;;;;;5014808;28;20048;-68
2023/11/10 11:32:40;;;;;;;60.20;55.63;;;12.50;99.90;;;;;;5013733;28;20038;-68
2023/11/10 11:35:11;;;;;;;73.88;69.50;;;12.40;99.90;;;;;;5014649;28;20037;-68
2023/11/10 11:37:37;;;;;;;79.57;74.03;;;12.40;99.90;;;;;;5014682;28;20033;-68
2023/11/10 11:40:07;;;;;;;57.75;53.60;;;12.40;99.90;;;;;;5014033;28;20058;-68
2023/11/10 11:42:35;;;;;;;45.30;41.92;;;12.40;99.90;;;;;;5012876;28;20033;-67
2023/11/10 11:45:08;;;;;;;38.08;34.88;;;12.40;99.90;;;;;;5013094;28;20388;-67
2023/11/10 11:47:34;;;;;;;35.67;32.83;;;12.40;99.90;;;;;;5011118;28;20041;-68
2023/11/10 11:50:00;;;;;;;40.85;37.35;;;12.40;99.90;;;;;;5014128;28;20044;-67
2023/11/10 11:52:26;;;;;;;39.75;36.17;;;12.40;99.90;;;;;;5013901;28;20030;-68
2023/11/10 11:54:54;;;;;;;42.75;39.22;;;12.40;99.90;;;;;;5014017;28;20030;-68
2023/11/10 11:57:20;;;;;;;57.05;52.95;;;12.50;99.90;;;;;;4994577;28;20047;-68
2023/11/10 11:59:46;;;;;;;39.28;36.38;;;12.50;99.90;;;;;;4993458;28;20632;-67
2023/11/10 12:02:13;;;;;;;82.18;76.95;;;12.50;99.90;;;;;;4992843;28;20045;-67
2023/11/10 12:04:40;;;;;;;59.80;55.83;;;12.60;99.90;;;;;;4994850;28;20455;-68
2023/11/10 12:07:06;;;;;;;52.72;48.65;;;12.70;99.90;;;;;;4993750;28;20038;-67
2023/11/10 12:09:32;;;;;;;44.85;41.30;;;12.80;99.90;;;;;;4994305;28;20031;-67
2023/11/10 12:11:58;;;;;;;50.53;46.97;;;12.90;99.90;;;;;;4994071;28;20040;-67
2023/11/10 12:14:24;;;;;;;57.67;53.92;;;13.00;99.90;;;;;;4993282;28;20339;-67
2023/11/10 12:16:50;;;;;;;74.60;70.35;;;13.00;99.90;;;;;;4993779;28;20042;-67
2023/11/10 12:19:17;;;;;;;66.20;61.70;;;13.10;99.90;;;;;;4994190;28;20022;-67
2023/11/10 12:21:43;;;;;;;55.75;52.45;;;13.20;99.90;;;;;;4993815;28;20509;-67
2023/11/10 12:24:10;;;;;;;51.88;48.28;;;13.30;99.90;;;;;;4992854;28;20051;-67
2023/11/10 12:26:36;;;;;;;61.67;57.78;;;13.30;99.90;;;;;;4993986;28;20055;-67
2023/11/10 12:29:17;;;;;;;57.85;54.35;;;13.30;99.90;;;;;;4992739;28;20042;-67
2023/11/10 12:31:43;;;;;;;67.30;63.33;;;13.30;99.90;;;;;;4993236;28;20054;-67
2023/11/10 12:34:09;;;;;;;54.00;50.45;;;13.30;99.90;;;;;;4994201;28;20058;-67